Forside
METAR-TAF:

METAR-TAF

Lufthavne :

Green Bay, Wisconsin, USA

Breddekreds: 44-28-46N, længdekreds: 088-08-12W, højde: 211 m

Aktuelle vejr

Denne rapport blev lavet for 1 time og 5 minutter siden, kl. 10:53 UTC
Vind stille
Temperatur 13°C
Fugtighed 94%
Tryk 1019 hPa
Sigt: 16.1 km
skyfri

METAR: KGRB 121053Z AUTO 00000KT 10SM CLR 13/12 A3010 RMK AO2 SLP190 T01330122 TSNO

Tid: 06:58 (11:58 UTC)

Vejrudsigter

Denne rapport blev lavet for 27 minutter siden, kl. 11:31 UTC
Foreløbig gælder fra 12 på 12 UTC til 13 på 12 UTC
Vind 3 kt fra varierende retninger
Sigt: 10 km
Spredte skyer i en højde af 12000 ft
Fra 12 på 1600 UTC
Vind 5 kt fra syd
Sigt: 10 km
skyfri
Fra 12 på 2300 UTC
Vind 3 kt fra sydøst
Sigt: 10 km
Spredte skyer i en højde af 15000 ft

TAF: KGRB 121131Z 1212/1312 VRB03KT P6SM SCT120 FM121600 19005KT P6SM SKC FM122300 14003KT P6SM SCT150

Vejrobservationer og prognoser fra mere end 4000 lufthavne (METAR og TAF).

De gule og røde prikker repræsenterer de meteorologiske stationer.

Flyt musen over at se navnet på stationen.

Så klik over at se vejr observationer og prognoser.

At skifte det kort: Klik på de grønne knapper med et sort kors for at zoome ind; på den grønne knap med en bindestreg for at zoome ud; eller på de grønne pile for tilstødende kort.


METAR-TAF: